Station Historical Data
Daily Summary for March 5, 2012 Units:  Both    English   Metric
« Previous Day
Next Day »
Daily Weekly Monthly Yearly Custom
  High: Low: Average:
Temperature: 52.5 °F /  11.4 °C 38.1 °F /  3.4 °C 46.2 °F /  7.9 °C
Dew Point: 32.7 °F /  0.4 °C 19.9 °F /  -6.7 °C 26 °F /  -3.3 °C
Humidity: 65% 28% 46%
Wind Speed: 20.0mph /  32.2km/h - 6.3mph /  10.1km/h
Wind Gust: 23.0mph /  37km/h - -
Wind- - SW
Pressure: 30.43 in /  1030.4 hPa 29.92 in /  1013.1 hPa -
Precipitation: 0.00 in /  0 mm    
Historical Graphs
 
 
Tabular Data for March 5, 2012
Time Temperature Dew Point Pressure Wind Wind Speed Wind Gust Humidity Rainfall Rate (Hourly) Conditions
00:00 51.3 °F /  10.7 °C 28.4 °F /  -2 °C 29.93in /  1013.4hPa SW 12.0mph /  19.3km/h 15.0mph /  24.1km/h 41% 0.00in /  0mm
00:01 51.3 °F /  10.7 °C 28.4 °F /  -2 °C 29.92in /  1013.1hPa WSW 11.0mph /  17.7km/h 15.0mph /  24.1km/h 41% 0.00in /  0mm
00:06 51.4 °F /  10.8 °C 28.5 °F /  -1.9 °C 29.93in /  1013.4hPa SW 18.0mph /  29km/h 18.0mph /  29km/h 41% 0.00in /  0mm
00:11 51.4 °F /  10.8 °C 29.1 °F /  -1.6 °C 29.93in /  1013.4hPa West 8.0mph /  12.9km/h 16.0mph /  25.7km/h 42% 0.00in /  0mm
00:16 51.8 °F /  11 °C 28.9 °F /  -1.7 °C 29.92in /  1013.1hPa WSW 14.0mph /  22.5km/h 19.0mph /  30.6km/h 41% 0.00in /  0mm
00:21 52.0 °F /  11.1 °C 28.5 °F /  -1.9 °C 29.93in /  1013.4hPa SW 18.0mph /  29km/h 23.0mph /  37km/h 40% 0.00in /  0mm
00:26 52.2 °F /  11.2 °C 29.2 °F /  -1.6 °C 29.93in /  1013.4hPa WSW 10.0mph /  16.1km/h 20.0mph /  32.2km/h 41% 0.00in /  0mm
00:31 52.4 °F /  11.3 °C 28.8 °F /  -1.8 °C 29.93in /  1013.4hPa SW 10.0mph /  16.1km/h 21.0mph /  33.8km/h 40% 0.00in /  0mm
00:36 52.4 °F /  11.3 °C 29.4 °F /  -1.4 °C 29.93in /  1013.4hPa SW 11.0mph /  17.7km/h 16.0mph /  25.7km/h 41% 0.00in /  0mm
00:37 52.3 °F /  11.3 °C 29.3 °F /  -1.5 °C 29.93in /  1013.4hPa WSW 14.0mph /  22.5km/h 17.0mph /  27.4km/h 41% 0.00in /  0mm
00:42 52.5 °F /  11.4 °C 28.9 °F /  -1.7 °C 29.93in /  1013.4hPa SW 9.0mph /  14.5km/h 19.0mph /  30.6km/h 40% 0.00in /  0mm
00:47 52.4 °F /  11.3 °C 29.4 °F /  -1.4 °C 29.94in /  1013.8hPa West 12.0mph /  19.3km/h 16.0mph /  25.7km/h 41% 0.00in /  0mm
00:52 52.2 °F /  11.2 °C 29.2 °F /  -1.6 °C 29.93in /  1013.4hPa SW 8.0mph /  12.9km/h 17.0mph /  27.4km/h 41% 0.00in /  0mm
00:57 52.2 °F /  11.2 °C 29.2 °F /  -1.6 °C 29.93in /  1013.4hPa WSW 12.0mph /  19.3km/h 19.0mph /  30.6km/h 41% 0.00in /  0mm
01:02 52.1 °F /  11.2 °C 29.1 °F /  -1.6 °C 29.93in /  1013.4hPa SW 10.0mph /  16.1km/h 15.0mph /  24.1km/h 41% 0.00in /  0mm
01:07 52.0 °F /  11.1 °C 29.6 °F /  -1.3 °C 29.93in /  1013.4hPa SW 10.0mph /  16.1km/h 17.0mph /  27.4km/h 42% 0.00in /  0mm
01:12 51.8 °F /  11 °C 29.5 °F /  -1.4 °C 29.93in /  1013.4hPa WSW 8.0mph /  12.9km/h 15.0mph /  24.1km/h 42% 0.00in /  0mm
01:17 51.7 °F /  10.9 °C 29.4 °F /  -1.4 °C 29.93in /  1013.4hPa WSW 14.0mph /  22.5km/h 17.0mph /  27.4km/h 42% 0.00in /  0mm
01:22 51.6 °F /  10.9 °C 29.9 °F /  -1.2 °C 29.94in /  1013.8hPa West 11.0mph /  17.7km/h 12.0mph /  19.3km/h 43% 0.00in /  0mm
01:27 51.5 °F /  10.8 °C 30.3 °F /  -0.9 °C 29.94in /  1013.8hPa West 10.0mph /  16.1km/h 14.0mph /  22.5km/h 44% 0.00in /  0mm
01:32 51.5 °F /  10.8 °C 29.8 °F /  -1.2 °C 29.94in /  1013.8hPa West 8.0mph /  12.9km/h 12.0mph /  19.3km/h 43% 0.00in /  0mm
01:37 51.4 °F /  10.8 °C 30.2 °F /  -1 °C 29.94in /  1013.8hPa WSW 8.0mph /  12.9km/h 11.0mph /  17.7km/h 44% 0.00in /  0mm
01:42 51.2 °F /  10.7 °C 30.0 °F /  -1.1 °C 29.95in /  1014.1hPa West 9.0mph /  14.5km/h 12.0mph /  19.3km/h 44% 0.00in /  0mm
01:47 51.3 °F /  10.7 °C 30.1 °F /  -1.1 °C 29.95in /  1014.1hPa West 8.0mph /  12.9km/h 16.0mph /  25.7km/h 44% 0.00in /  0mm
01:52 51.5 °F /  10.8 °C 30.3 °F /  -0.9 °C 29.96in /  1014.4hPa West 5.0mph /  8km/h 12.0mph /  19.3km/h 44% 0.00in /  0mm
01:57 51.4 °F /  10.8 °C 30.2 °F /  -1 °C 29.96in /  1014.4hPa West 11.0mph /  17.7km/h 15.0mph /  24.1km/h 44% 0.00in /  0mm
02:02 51.4 °F /  10.8 °C 30.2 °F /  -1 °C 29.97in /  1014.8hPa WSW 10.0mph /  16.1km/h 13.0mph /  20.9km/h 44% 0.00in /  0mm
02:07 51.4 °F /  10.8 °C 30.2 °F /  -1 °C 29.97in /  1014.8hPa West 7.0mph /  11.3km/h 11.0mph /  17.7km/h 44% 0.00in /  0mm
02:12 51.5 °F /  10.8 °C 30.3 °F /  -0.9 °C 29.98in /  1015.1hPa West 7.0mph /  11.3km/h 8.0mph /  12.9km/h 44% 0.00in /  0mm
02:17 51.4 °F /  10.8 °C 30.2 °F /  -1 °C 29.98in /  1015.1hPa West 5.0mph /  8km/h 10.0mph /  16.1km/h 44% 0.00in /  0mm
02:23 51.4 °F /  10.8 °C 30.2 °F /  -1 °C 29.98in /  1015.1hPa West 8.0mph /  12.9km/h 11.0mph /  17.7km/h 44% 0.00in /  0mm
02:28 51.4 °F /  10.8 °C 30.2 °F /  -1 °C 29.99in /  1015.5hPa WNW 10.0mph /  16.1km/h 10.0mph /  16.1km/h 44% 0.00in /  0mm
02:33 51.4 °F /  10.8 °C 30.2 °F /  -1 °C 29.99in /  1015.5hPa WNW 5.0mph /  8km/h 11.0mph /  17.7km/h 44% 0.00in /  0mm
02:38 51.3 °F /  10.7 °C 30.1 °F /  -1.1 °C 29.99in /  1015.5hPa WNW 8.0mph /  12.9km/h 13.0mph /  20.9km/h 44% 0.00in /  0mm
02:43 51.1 °F /  10.6 °C 30.5 °F /  -0.8 °C 30.00in /  1015.8hPa WNW 5.0mph /  8km/h 9.0mph /  14.5km/h 45% 0.00in /  0mm
02:48 51.0 °F /  10.6 °C 30.4 °F /  -0.9 °C 30.00in /  1015.8hPa West 6.0mph /  9.7km/h 9.0mph /  14.5km/h 45% 0.00in /  0mm
02:53 51.0 °F /  10.6 °C 30.4 °F /  -0.9 °C 30.01in /  1016.1hPa WNW 8.0mph /  12.9km/h 12.0mph /  19.3km/h 45% 0.00in /  0mm
02:58 51.1 °F /  10.6 °C 30.5 °F /  -0.8 °C 30.01in /  1016.1hPa West 13.0mph /  20.9km/h 14.0mph /  22.5km/h 45% 0.00in /  0mm
03:03 51.3 °F /  10.7 °C 30.7 °F /  -0.7 °C 30.01in /  1016.1hPa WNW 7.0mph /  11.3km/h 16.0mph /  25.7km/h 45% 0.00in /  0mm
03:08 51.2 °F /  10.7 °C 31.1 °F /  -0.5 °C 30.02in /  1016.5hPa WNW 7.0mph /  11.3km/h 17.0mph /  27.4km/h 46% 0.00in /  0mm
03:13 51.2 °F /  10.7 °C 31.1 °F /  -0.5 °C 30.02in /  1016.5hPa WNW 10.0mph /  16.1km/h 12.0mph /  19.3km/h 46% 0.00in /  0mm
03:18 50.9 °F /  10.5 °C 31.4 °F /  -0.3 °C 30.02in /  1016.5hPa NW 11.0mph /  17.7km/h 17.0mph /  27.4km/h 47% 0.00in /  0mm
03:23 50.8 °F /  10.4 °C 32.3 °F /  0.2 °C 30.03in /  1016.8hPa WNW 9.0mph /  14.5km/h 14.0mph /  22.5km/h 49% 0.00in /  0mm
03:28 50.6 °F /  10.3 °C 32.7 °F /  0.4 °C 30.03in /  1016.8hPa NW 7.0mph /  11.3km/h 11.0mph /  17.7km/h 50% 0.00in /  0mm
03:33 50.3 °F /  10.2 °C 32.4 °F /  0.2 °C 30.04in /  1017.2hPa WNW 8.0mph /  12.9km/h 10.0mph /  16.1km/h 50% 0.00in /  0mm
03:38 50.1 °F /  10.1 °C 32.2 °F /  0.1 °C 30.04in /  1017.2hPa West 18.0mph /  29km/h 18.0mph /  29km/h 50% 0.00in /  0mm
03:43 49.9 °F /  9.9 °C 31.5 °F /  -0.3 °C 30.05in /  1017.5hPa WNW 11.0mph /  17.7km/h 19.0mph /  30.6km/h 49% 0.00in /  0mm
03:48 49.6 °F /  9.8 °C 31.2 °F /  -0.4 °C 30.05in /  1017.5hPa WNW 9.0mph /  14.5km/h 12.0mph /  19.3km/h 49% 0.00in /  0mm
03:53 49.0 °F /  9.4 °C 31.2 °F /  -0.4 °C 30.05in /  1017.5hPa NW 9.0mph /  14.5km/h 9.0mph /  14.5km/h 50% 0.00in /  0mm
03:58 48.9 °F /  9.4 °C 31.1 °F /  -0.5 °C 30.05in /  1017.5hPa WNW 8.0mph /  12.9km/h 16.0mph /  25.7km/h 50% 0.00in /  0mm
04:03 48.5 °F /  9.2 °C 30.7 °F /  -0.7 °C 30.06in /  1017.8hPa WNW 10.0mph /  16.1km/h 15.0mph /  24.1km/h 50% 0.00in /  0mm
04:08 48.5 °F /  9.2 °C 29.7 °F /  -1.3 °C 30.07in /  1018.2hPa West 11.0mph /  17.7km/h 20.0mph /  32.2km/h 48% 0.00in /  0mm
04:13 48.3 °F /  9.1 °C 28.5 °F /  -1.9 °C 30.07in /  1018.2hPa West 14.0mph /  22.5km/h 19.0mph /  30.6km/h 46% 0.00in /  0mm
04:18 48.1 °F /  8.9 °C 27.8 °F /  -2.3 °C 30.07in /  1018.2hPa WNW 10.0mph /  16.1km/h 23.0mph /  37km/h 45% 0.00in /  0mm
04:23 47.7 °F /  8.7 °C 27.4 °F /  -2.6 °C 30.08in /  1018.5hPa NW 12.0mph /  19.3km/h 16.0mph /  25.7km/h 45% 0.00in /  0mm
04:28 47.3 °F /  8.5 °C 27.0 °F /  -2.8 °C 30.08in /  1018.5hPa NW 9.0mph /  14.5km/h 13.0mph /  20.9km/h 45% 0.00in /  0mm
04:33 47.0 °F /  8.3 °C 27.3 °F /  -2.6 °C 30.09in /  1018.8hPa WNW 12.0mph /  19.3km/h 16.0mph /  25.7km/h 46% 0.00in /  0mm
04:38 46.8 °F /  8.2 °C 27.1 °F /  -2.7 °C 30.09in /  1018.8hPa WNW 9.0mph /  14.5km/h 17.0mph /  27.4km/h 46% 0.00in /  0mm
04:43 46.4 °F /  8 °C 27.3 °F /  -2.6 °C 30.10in /  1019.2hPa WNW 6.0mph /  9.7km/h 13.0mph /  20.9km/h 47% 0.00in /  0mm
04:48 46.1 °F /  7.8 °C 27.5 °F /  -2.5 °C 30.10in /  1019.2hPa NW 12.0mph /  19.3km/h 18.0mph /  29km/h 48% 0.00in /  0mm
04:53 45.8 °F /  7.7 °C 27.7 °F /  -2.4 °C 30.11in /  1019.5hPa WNW 9.0mph /  14.5km/h 12.0mph /  19.3km/h 49% 0.00in /  0mm
04:58 45.6 °F /  7.6 °C 27.6 °F /  -2.4 °C 30.11in /  1019.5hPa WNW 8.0mph /  12.9km/h 13.0mph /  20.9km/h 49% 0.00in /  0mm
05:03 45.3 °F /  7.4 °C 28.2 °F /  -2.1 °C 30.12in /  1019.9hPa NNW 7.0mph /  11.3km/h 13.0mph /  20.9km/h 51% 0.00in /  0mm
05:08 44.9 °F /  7.2 °C 29.3 °F /  -1.5 °C 30.12in /  1019.9hPa NNW 8.0mph /  12.9km/h 19.0mph /  30.6km/h 54% 0.00in /  0mm
05:13 44.2 °F /  6.8 °C 29.5 °F /  -1.4 °C 30.13in /  1020.2hPa NW 11.0mph /  17.7km/h 11.0mph /  17.7km/h 56% 0.00in /  0mm
05:19 43.9 °F /  6.6 °C 29.7 °F /  -1.3 °C 30.13in /  1020.2hPa NW 7.0mph /  11.3km/h 18.0mph /  29km/h 57% 0.00in /  0mm
05:23 43.5 °F /  6.4 °C 29.3 °F /  -1.5 °C 30.14in /  1020.5hPa NW 10.0mph /  16.1km/h 17.0mph /  27.4km/h 57% 0.00in /  0mm
05:29 43.3 °F /  6.3 °C 28.7 °F /  -1.8 °C 30.15in /  1020.9hPa NW 20.0mph /  32.2km/h 20.0mph /  32.2km/h 56% 0.00in /  0mm
05:34 43.0 °F /  6.1 °C 28.0 °F /  -2.2 °C 30.16in /  1021.2hPa NW 8.0mph /  12.9km/h 22.0mph /  35.4km/h 55% 0.00in /  0mm
05:39 42.7 °F /  5.9 °C 27.7 °F /  -2.4 °C 30.16in /  1021.2hPa NW 12.0mph /  19.3km/h 18.0mph /  29km/h 55% 0.00in /  0mm
05:44 42.4 °F /  5.8 °C 27.4 °F /  -2.6 °C 30.17in /  1021.6hPa NW 11.0mph /  17.7km/h 18.0mph /  29km/h 55% 0.00in /  0mm
05:49 42.2 °F /  5.7 °C 27.6 °F /  -2.4 °C 30.17in /  1021.6hPa NW 12.0mph /  19.3km/h 21.0mph /  33.8km/h 56% 0.00in /  0mm
05:54 41.8 °F /  5.4 °C 27.7 °F /  -2.4 °C 30.18in /  1021.9hPa NW 11.0mph /  17.7km/h 15.0mph /  24.1km/h 57% 0.00in /  0mm
05:59 41.6 °F /  5.3 °C 27.5 °F /  -2.5 °C 30.18in /  1021.9hPa WNW 17.0mph /  27.4km/h 17.0mph /  27.4km/h 57% 0.00in /  0mm
06:04 41.4 °F /  5.2 °C 27.8 °F /  -2.3 °C 30.19in /  1022.2hPa NW 12.0mph /  19.3km/h 14.0mph /  22.5km/h 58% 0.00in /  0mm
06:09 41.2 °F /  5.1 °C 27.6 °F /  -2.4 °C 30.20in /  1022.6hPa WNW 13.0mph /  20.9km/h 21.0mph /  33.8km/h 58% 0.00in /  0mm
06:14 41.1 °F /  5.1 °C 27.5 °F /  -2.5 °C 30.20in /  1022.6hPa NW 12.0mph /  19.3km/h 15.0mph /  24.1km/h 58% 0.00in /  0mm
06:19 40.8 °F /  4.9 °C 27.6 °F /  -2.4 °C 30.20in /  1022.6hPa WNW 12.0mph /  19.3km/h 12.0mph /  19.3km/h 59% 0.00in /  0mm
06:24 40.5 °F /  4.7 °C 27.7 °F /  -2.4 °C 30.21in /  1022.9hPa NW 9.0mph /  14.5km/h 11.0mph /  17.7km/h 60% 0.00in /  0mm
06:29 40.3 °F /  4.6 °C 27.9 °F /  -2.3 °C 30.21in /  1022.9hPa NW 9.0mph /  14.5km/h 15.0mph /  24.1km/h 61% 0.00in /  0mm
06:34 40.1 °F /  4.5 °C 27.8 °F /  -2.3 °C 30.22in /  1023.2hPa WNW 6.0mph /  9.7km/h 10.0mph /  16.1km/h 61% 0.00in /  0mm
06:39 40.0 °F /  4.4 °C 27.6 °F /  -2.4 °C 30.22in /  1023.2hPa WNW 7.0mph /  11.3km/h 16.0mph /  25.7km/h 61% 0.00in /  0mm
06:44 40.0 °F /  4.4 °C 27.6 °F /  -2.4 °C 30.23in /  1023.6hPa NW 8.0mph /  12.9km/h 14.0mph /  22.5km/h 61% 0.00in /  0mm
06:49 39.9 °F /  4.4 °C 27.6 °F /  -2.4 °C 30.23in /  1023.6hPa WNW 8.0mph /  12.9km/h 11.0mph /  17.7km/h 61% 0.00in /  0mm
06:54 39.5 °F /  4.2 °C 27.2 °F /  -2.7 °C 30.23in /  1023.6hPa WNW 9.0mph /  14.5km/h 12.0mph /  19.3km/h 61% 0.00in /  0mm
06:59 39.3 °F /  4.1 °C 27.4 °F /  -2.6 °C 30.23in /  1023.6hPa NW 8.0mph /  12.9km/h 11.0mph /  17.7km/h 62% 0.00in /  0mm
07:04 39.3 °F /  4.1 °C 27.4 °F /  -2.6 °C 30.24in /  1023.9hPa NW 5.0mph /  8km/h 10.0mph /  16.1km/h 62% 0.00in /  0mm
07:09 38.9 °F /  3.8 °C 27.4 °F /  -2.6 °C 30.24in /  1023.9hPa NNW 5.0mph /  8km/h 7.0mph /  11.3km/h 63% 0.00in /  0mm
07:14 38.5 °F /  3.6 °C 27.4 °F /  -2.6 °C 30.25in /  1024.3hPa NNW 6.0mph /  9.7km/h 6.0mph /  9.7km/h 64% 0.00in /  0mm
07:19 38.3 °F /  3.5 °C 27.2 °F /  -2.7 °C 30.25in /  1024.3hPa NW 5.0mph /  8km/h 6.0mph /  9.7km/h 64% 0.00in /  0mm
07:24 38.3 °F /  3.5 °C 27.6 °F /  -2.4 °C 30.26in /  1024.6hPa NW 3.0mph /  4.8km/h 6.0mph /  9.7km/h 65% 0.00in /  0mm
07:29 38.1 °F /  3.4 °C 27.4 °F /  -2.6 °C 30.26in /  1024.6hPa NNW 5.0mph /  8km/h 7.0mph /  11.3km/h 65% 0.00in /  0mm
07:34 38.1 °F /  3.4 °C 27.4 °F /  -2.6 °C 30.26in /  1024.6hPa NW 12.0mph /  19.3km/h 12.0mph /  19.3km/h 65% 0.00in /  0mm
07:39 38.5 °F /  3.6 °C 27.4 °F /  -2.6 °C 30.27in /  1024.9hPa North 10.0mph /  16.1km/h 15.0mph /  24.1km/h 64% 0.00in /  0mm
07:44 38.7 °F /  3.7 °C 27.2 °F /  -2.7 °C 30.27in /  1024.9hPa NNW 8.0mph /  12.9km/h 12.0mph /  19.3km/h 63% 0.00in /  0mm
07:49 38.8 °F /  3.8 °C 26.9 °F /  -2.8 °C 30.27in /  1024.9hPa WNW 5.0mph /  8km/h 12.0mph /  19.3km/h 62% 0.00in /  0mm
07:54 38.8 °F /  3.8 °C 27.3 °F /  -2.6 °C 30.28in /  1025.3hPa NNW 3.0mph /  4.8km/h 11.0mph /  17.7km/h 63% 0.00in /  0mm
07:59 38.8 °F /  3.8 °C 27.3 °F /  -2.6 °C 30.28in /  1025.3hPa North 7.0mph /  11.3km/h 10.0mph /  16.1km/h 63% 0.00in /  0mm
08:04 38.8 °F /  3.8 °C 26.9 °F /  -2.8 °C 30.28in /  1025.3hPa NW 10.0mph /  16.1km/h 14.0mph /  22.5km/h 62% 0.00in /  0mm
08:09 38.9 °F /  3.8 °C 27.0 °F /  -2.8 °C 30.28in /  1025.3hPa NNW 9.0mph /  14.5km/h 15.0mph /  24.1km/h 62% 0.00in /  0mm
08:14 39.0 °F /  3.9 °C 27.1 °F /  -2.7 °C 30.29in /  1025.6hPa NNE 10.0mph /  16.1km/h 11.0mph /  17.7km/h 62% 0.00in /  0mm
08:19 39.1 °F /  3.9 °C 27.2 °F /  -2.7 °C 30.29in /  1025.6hPa NW 6.0mph /  9.7km/h 13.0mph /  20.9km/h 62% 0.00in /  0mm
08:24 39.2 °F /  4 °C 27.3 °F /  -2.6 °C 30.30in /  1026hPa North 9.0mph /  14.5km/h 12.0mph /  19.3km/h 62% 0.00in /  0mm
08:29 39.3 °F /  4.1 °C 27.0 °F /  -2.8 °C 30.30in /  1026hPa NW 9.0mph /  14.5km/h 14.0mph /  22.5km/h 61% 0.00in /  0mm
08:34 39.3 °F /  4.1 °C 26.6 °F /  -3 °C 30.30in /  1026hPa NW 19.0mph /  30.6km/h 19.0mph /  30.6km/h 60% 0.00in /  0mm
08:39 39.3 °F /  4.1 °C 26.6 °F /  -3 °C 30.31in /  1026.3hPa NW 14.0mph /  22.5km/h 19.0mph /  30.6km/h 60% 0.00in /  0mm
08:44 39.4 °F /  4.1 °C 26.3 °F /  -3.2 °C 30.31in /  1026.3hPa NW 10.0mph /  16.1km/h 17.0mph /  27.4km/h 59% 0.00in /  0mm
08:49 39.7 °F /  4.3 °C 27.0 °F /  -2.8 °C 30.32in /  1026.6hPa NW 8.0mph /  12.9km/h 14.0mph /  22.5km/h 60% 0.00in /  0mm
08:54 39.8 °F /  4.3 °C 26.7 °F /  -2.9 °C 30.32in /  1026.6hPa NW 10.0mph /  16.1km/h 15.0mph /  24.1km/h 59% 0.00in /  0mm
08:59 40.1 °F /  4.5 °C 27.4 °F /  -2.6 °C 30.33in /  1027hPa NW 5.0mph /  8km/h 12.0mph /  19.3km/h 60% 0.00in /  0mm
09:04 40.6 °F /  4.8 °C 27.8 °F /  -2.3 °C 30.33in /  1027hPa NW 12.0mph /  19.3km/h 13.0mph /  20.9km/h 60% 0.00in /  0mm
09:09 40.6 °F /  4.8 °C 27.0 °F /  -2.8 °C 30.33in /  1027hPa NW 7.0mph /  11.3km/h 15.0mph /  24.1km/h 58% 0.00in /  0mm
09:14 40.9 °F /  4.9 °C 27.7 °F /  -2.4 °C 30.34in /  1027.3hPa North 11.0mph /  17.7km/h 14.0mph /  22.5km/h 59% 0.00in /  0mm
09:19 40.8 °F /  4.9 °C 27.2 °F /  -2.7 °C 30.34in /  1027.3hPa NW 9.0mph /  14.5km/h 15.0mph /  24.1km/h 58% 0.00in /  0mm
09:24 41.1 °F /  5.1 °C 27.0 °F /  -2.8 °C 30.34in /  1027.3hPa NNW 6.0mph /  9.7km/h 13.0mph /  20.9km/h 57% 0.00in /  0mm
09:29 41.3 °F /  5.2 °C 26.8 °F /  -2.9 °C 30.35in /  1027.7hPa NNW 10.0mph /  16.1km/h 12.0mph /  19.3km/h 56% 0.00in /  0mm
09:34 41.4 °F /  5.2 °C 26.9 °F /  -2.8 °C 30.35in /  1027.7hPa NW 7.0mph /  11.3km/h 15.0mph /  24.1km/h 56% 0.00in /  0mm
09:39 41.5 °F /  5.3 °C 27.0 °F /  -2.8 °C 30.35in /  1027.7hPa NW 5.0mph /  8km/h 12.0mph /  19.3km/h 56% 0.00in /  0mm
09:44 41.8 °F /  5.4 °C 26.8 °F /  -2.9 °C 30.35in /  1027.7hPa NW 6.0mph /  9.7km/h 13.0mph /  20.9km/h 55% 0.00in /  0mm
09:50 41.6 °F /  5.3 °C 27.1 °F /  -2.7 °C 30.36in /  1028hPa North 9.0mph /  14.5km/h 14.0mph /  22.5km/h 56% 0.00in /  0mm
09:55 42.0 °F /  5.6 °C 27.0 °F /  -2.8 °C 30.36in /  1028hPa NW 9.0mph /  14.5km/h 13.0mph /  20.9km/h 55% 0.00in /  0mm
10:00 42.3 °F /  5.7 °C 27.7 °F /  -2.4 °C 30.36in /  1028hPa NW 7.0mph /  11.3km/h 10.0mph /  16.1km/h 56% 0.00in /  0mm
10:05 42.5 °F /  5.8 °C 27.5 °F /  -2.5 °C 30.37in /  1028.3hPa NNW 3.0mph /  4.8km/h 11.0mph /  17.7km/h 55% 0.00in /  0mm
10:10 42.6 °F /  5.9 °C 28.0 °F /  -2.2 °C 30.37in /  1028.3hPa WNW 8.0mph /  12.9km/h 9.0mph /  14.5km/h 56% 0.00in /  0mm
10:15 42.6 °F /  5.9 °C 27.1 °F /  -2.7 °C 30.38in /  1028.7hPa WNW 8.0mph /  12.9km/h 14.0mph /  22.5km/h 54% 0.00in /  0mm
10:20 42.9 °F /  6.1 °C 27.9 °F /  -2.3 °C 30.38in /  1028.7hPa NNE 10.0mph /  16.1km/h 13.0mph /  20.9km/h 55% 0.00in /  0mm
10:25 43.1 °F /  6.2 °C 27.6 °F /  -2.4 °C 30.38in /  1028.7hPa NNW 8.0mph /  12.9km/h 10.0mph /  16.1km/h 54% 0.00in /  0mm
10:30 43.1 °F /  6.2 °C 27.6 °F /  -2.4 °C 30.38in /  1028.7hPa WNW 7.0mph /  11.3km/h 11.0mph /  17.7km/h 54% 0.00in /  0mm
10:35 43.6 °F /  6.4 °C 28.5 °F /  -1.9 °C 30.38in /  1028.7hPa NNW 7.0mph /  11.3km/h 13.0mph /  20.9km/h 55% 0.00in /  0mm
10:37 43.5 °F /  6.4 °C 27.5 °F /  -2.5 °C 30.38in /  1028.7hPa NW 5.0mph /  8km/h 14.0mph /  22.5km/h 53% 0.00in /  0mm
10:42 43.6 °F /  6.4 °C 27.1 °F /  -2.7 °C 30.39in /  1029hPa WNW 5.0mph /  8km/h 15.0mph /  24.1km/h 52% 0.00in /  0mm
10:47 43.9 °F /  6.6 °C 28.8 °F /  -1.8 °C 30.39in /  1029hPa North 8.0mph /  12.9km/h 11.0mph /  17.7km/h 55% 0.00in /  0mm
10:52 43.9 °F /  6.6 °C 28.4 °F /  -2 °C 30.39in /  1029hPa NW 5.0mph /  8km/h 12.0mph /  19.3km/h 54% 0.00in /  0mm
10:57 44.2 °F /  6.8 °C 28.2 °F /  -2.1 °C 30.39in /  1029hPa NNW 10.0mph /  16.1km/h 10.0mph /  16.1km/h 53% 0.00in /  0mm
11:02 44.2 °F /  6.8 °C 27.2 °F /  -2.7 °C 30.39in /  1029hPa NW 6.0mph /  9.7km/h 13.0mph /  20.9km/h 51% 0.00in /  0mm
11:07 44.4 °F /  6.9 °C 26.5 °F /  -3.1 °C 30.39in /  1029hPa NW 9.0mph /  14.5km/h 13.0mph /  20.9km/h 49% 0.00in /  0mm
11:12 44.6 °F /  7 °C 27.1 °F /  -2.7 °C 30.39in /  1029hPa North 11.0mph /  17.7km/h 11.0mph /  17.7km/h 50% 0.00in /  0mm
11:17 44.6 °F /  7 °C 26.6 °F /  -3 °C 30.40in /  1029.3hPa NNE 5.0mph /  8km/h 13.0mph /  20.9km/h 49% 0.00in /  0mm
11:22 44.8 °F /  7.1 °C 28.3 °F /  -2.1 °C 30.40in /  1029.3hPa NNW 8.0mph /  12.9km/h 10.0mph /  16.1km/h 52% 0.00in /  0mm
11:28 45.2 °F /  7.3 °C 28.2 °F /  -2.1 °C 30.40in /  1029.3hPa NE 7.0mph /  11.3km/h 10.0mph /  16.1km/h 51% 0.00in /  0mm
11:33 45.2 °F /  7.3 °C 25.7 °F /  -3.5 °C 30.40in /  1029.3hPa NNW 9.0mph /  14.5km/h 12.0mph /  19.3km/h 46% 0.00in /  0mm
11:38 45.7 °F /  7.6 °C 26.6 °F /  -3 °C 30.40in /  1029.3hPa NNW 11.0mph /  17.7km/h 14.0mph /  22.5km/h 47% 0.00in /  0mm
11:43 45.6 °F /  7.6 °C 26.5 °F /  -3.1 °C 30.40in /  1029.3hPa WNW 6.0mph /  9.7km/h 11.0mph /  17.7km/h 47% 0.00in /  0mm
11:48 46.0 °F /  7.8 °C 27.4 °F /  -2.6 °C 30.40in /  1029.3hPa NNW 6.0mph /  9.7km/h 8.0mph /  12.9km/h 48% 0.00in /  0mm
11:53 46.0 °F /  7.8 °C 26.9 °F /  -2.8 °C 30.40in /  1029.3hPa NNE 4.0mph /  6.4km/h 11.0mph /  17.7km/h 47% 0.00in /  0mm
11:58 45.8 °F /  7.7 °C 27.2 °F /  -2.7 °C 30.40in /  1029.3hPa NNW 12.0mph /  19.3km/h 12.0mph /  19.3km/h 48% 0.00in /  0mm
12:03 46.5 °F /  8.1 °C 28.9 °F /  -1.7 °C 30.41in /  1029.7hPa NW 5.0mph /  8km/h 11.0mph /  17.7km/h 50% 0.00in /  0mm
12:08 46.7 °F /  8.2 °C 27.0 °F /  -2.8 °C 30.41in /  1029.7hPa NNE 5.0mph /  8km/h 8.0mph /  12.9km/h 46% 0.00in /  0mm
12:13 47.1 °F /  8.4 °C 27.9 °F /  -2.3 °C 30.41in /  1029.7hPa NW 8.0mph /  12.9km/h 10.0mph /  16.1km/h 47% 0.00in /  0mm
12:18 47.4 °F /  8.6 °C 26.6 °F /  -3 °C 30.41in /  1029.7hPa NNW 8.0mph /  12.9km/h 8.0mph /  12.9km/h 44% 0.00in /  0mm
12:23 47.3 °F /  8.5 °C 26.0 °F /  -3.3 °C 30.40in /  1029.3hPa NNW 7.0mph /  11.3km/h 10.0mph /  16.1km/h 43% 0.00in /  0mm
12:28 47.5 °F /  8.6 °C 25.6 °F /  -3.6 °C 30.40in /  1029.3hPa NW 6.0mph /  9.7km/h 7.0mph /  11.3km/h 42% 0.00in /  0mm
12:33 47.7 °F /  8.7 °C 25.8 °F /  -3.4 °C 30.40in /  1029.3hPa NW 8.0mph /  12.9km/h 11.0mph /  17.7km/h 42% 0.00in /  0mm
12:38 47.0 °F /  8.3 °C 25.7 °F /  -3.5 °C 30.40in /  1029.3hPa NNE 2.0mph /  3.2km/h 6.0mph /  9.7km/h 43% 0.00in /  0mm
12:43 48.0 °F /  8.9 °C 28.2 °F /  -2.1 °C 30.40in /  1029.3hPa NW 5.0mph /  8km/h 7.0mph /  11.3km/h 46% 0.00in /  0mm
12:48 48.2 °F /  9 °C 24.4 °F /  -4.2 °C 30.40in /  1029.3hPa NNW 7.0mph /  11.3km/h 8.0mph /  12.9km/h 39% 0.00in /  0mm
12:53 48.2 °F /  9 °C 24.4 °F /  -4.2 °C 30.40in /  1029.3hPa NNW 2.0mph /  3.2km/h 8.0mph /  12.9km/h 39% 0.00in /  0mm
12:58 48.4 °F /  9.1 °C 27.5 °F /  -2.5 °C 30.40in /  1029.3hPa NNW 1.0mph /  1.6km/h 7.0mph /  11.3km/h 44% 0.00in /  0mm
13:03 48.5 °F /  9.2 °C 25.3 °F /  -3.7 °C 30.40in /  1029.3hPa NNE 5.0mph /  8km/h 10.0mph /  16.1km/h 40% 0.00in /  0mm
13:08 49.2 °F /  9.6 °C 28.2 °F /  -2.1 °C 30.40in /  1029.3hPa WNW 6.0mph /  9.7km/h 6.0mph /  9.7km/h 44% 0.00in /  0mm
13:13 49.3 °F /  9.6 °C 26.0 °F /  -3.3 °C 30.40in /  1029.3hPa North 4.0mph /  6.4km/h 10.0mph /  16.1km/h 40% 0.00in /  0mm
13:18 49.1 °F /  9.5 °C 25.2 °F /  -3.8 °C 30.40in /  1029.3hPa WSW 1.0mph /  1.6km/h 6.0mph /  9.7km/h 39% 0.00in /  0mm
13:23 49.4 °F /  9.7 °C 24.9 °F /  -3.9 °C 30.40in /  1029.3hPa NNW 8.0mph /  12.9km/h 13.0mph /  20.9km/h 38% 0.00in /  0mm
13:29 48.9 °F /  9.4 °C 23.1 °F /  -4.9 °C 30.40in /  1029.3hPa NW 4.0mph /  6.4km/h 11.0mph /  17.7km/h 36% 0.00in /  0mm
13:34 49.3 °F /  9.6 °C 24.1 °F /  -4.4 °C 30.40in /  1029.3hPa NW 4.0mph /  6.4km/h 15.0mph /  24.1km/h 37% 0.00in /  0mm
13:39 49.7 °F /  9.8 °C 25.8 °F /  -3.4 °C 30.40in /  1029.3hPa NW 6.0mph /  9.7km/h 12.0mph /  19.3km/h 39% 0.00in /  0mm
13:44 49.8 °F /  9.9 °C 24.6 °F /  -4.1 °C 30.40in /  1029.3hPa NW 7.0mph /  11.3km/h 8.0mph /  12.9km/h 37% 0.00in /  0mm
13:49 49.7 °F /  9.8 °C 23.9 °F /  -4.5 °C 30.40in /  1029.3hPa NW 7.0mph /  11.3km/h 8.0mph /  12.9km/h 36% 0.00in /  0mm
13:54 50.3 °F /  10.2 °C 24.4 °F /  -4.2 °C 30.40in /  1029.3hPa NNW 6.0mph /  9.7km/h 13.0mph /  20.9km/h 36% 0.00in /  0mm
13:59 50.4 °F /  10.2 °C 23.8 °F /  -4.6 °C 30.40in /  1029.3hPa West 8.0mph /  12.9km/h 11.0mph /  17.7km/h 35% 0.00in /  0mm
14:04 49.8 °F /  9.9 °C 22.6 °F /  -5.2 °C 30.40in /  1029.3hPa NW 7.0mph /  11.3km/h 10.0mph /  16.1km/h 34% 0.00in /  0mm
14:09 50.2 °F /  10.1 °C 27.4 °F /  -2.6 °C 30.40in /  1029.3hPa NW 9.0mph /  14.5km/h 9.0mph /  14.5km/h 41% 0.00in /  0mm
14:14 50.2 °F /  10.1 °C 22.9 °F /  -5.1 °C 30.40in /  1029.3hPa WNW 7.0mph /  11.3km/h 9.0mph /  14.5km/h 34% 0.00in /  0mm
14:19 50.6 °F /  10.3 °C 26.0 °F /  -3.3 °C 30.40in /  1029.3hPa North 8.0mph /  12.9km/h 8.0mph /  12.9km/h 38% 0.00in /  0mm
14:24 51.0 °F /  10.6 °C 22.9 °F /  -5.1 °C 30.40in /  1029.3hPa WNW 3.0mph /  4.8km/h 10.0mph /  16.1km/h 33% 0.00in /  0mm
14:29 50.8 °F /  10.4 °C 21.3 °F /  -5.9 °C 30.40in /  1029.3hPa NNW 2.0mph /  3.2km/h 6.0mph /  9.7km/h 31% 0.00in /  0mm
14:34 51.0 °F /  10.6 °C 22.9 °F /  -5.1 °C 30.40in /  1029.3hPa NW 7.0mph /  11.3km/h 9.0mph /  14.5km/h 33% 0.00in /  0mm
14:39 51.2 °F /  10.7 °C 24.5 °F /  -4.2 °C 30.39in /  1029hPa NW 4.0mph /  6.4km/h 8.0mph /  12.9km/h 35% 0.00in /  0mm
14:44 51.0 °F /  10.6 °C 22.2 °F /  -5.4 °C 30.40in /  1029.3hPa NNW 3.0mph /  4.8km/h 7.0mph /  11.3km/h 32% 0.00in /  0mm
14:49 51.0 °F /  10.6 °C 25.7 °F /  -3.5 °C 30.39in /  1029hPa North 4.0mph /  6.4km/h 5.0mph /  8km/h 37% 0.00in /  0mm
14:54 51.2 °F /  10.7 °C 24.5 °F /  -4.2 °C 30.39in /  1029hPa North 6.0mph /  9.7km/h 12.0mph /  19.3km/h 35% 0.00in /  0mm
14:59 51.4 °F /  10.8 °C 25.4 °F /  -3.7 °C 30.39in /  1029hPa NNE 5.0mph /  8km/h 10.0mph /  16.1km/h 36% 0.00in /  0mm
15:04 51.0 °F /  10.6 °C 22.9 °F /  -5.1 °C 30.39in /  1029hPa East 2.0mph /  3.2km/h 9.0mph /  14.5km/h 33% 0.00in /  0mm
15:09 51.1 °F /  10.6 °C 24.4 °F /  -4.2 °C 30.39in /  1029hPa NE 6.0mph /  9.7km/h 9.0mph /  14.5km/h 35% 0.00in /  0mm
15:14 51.5 °F /  10.8 °C 24.1 °F /  -4.4 °C 30.38in /  1028.7hPa NNW 7.0mph /  11.3km/h 12.0mph /  19.3km/h 34% 0.00in /  0mm
15:19 51.8 °F /  11 °C 23.6 °F /  -4.7 °C 30.39in /  1029hPa NNE 5.0mph /  8km/h 11.0mph /  17.7km/h 33% 0.00in /  0mm
15:24 51.7 °F /  10.9 °C 25.6 °F /  -3.6 °C 30.38in /  1028.7hPa NNE 5.0mph /  8km/h 10.0mph /  16.1km/h 36% 0.00in /  0mm
15:29 51.8 °F /  11 °C 24.3 °F /  -4.3 °C 30.39in /  1029hPa NNE 9.0mph /  14.5km/h 11.0mph /  17.7km/h 34% 0.00in /  0mm
15:34 51.8 °F /  11 °C 22.1 °F /  -5.5 °C 30.39in /  1029hPa WNW 5.0mph /  8km/h 9.0mph /  14.5km/h 31% 0.00in /  0mm
15:39 51.9 °F /  11.1 °C 22.2 °F /  -5.4 °C 30.39in /  1029hPa West 6.0mph /  9.7km/h 10.0mph /  16.1km/h 31% 0.00in /  0mm
15:45 52.2 °F /  11.2 °C 26.1 °F /  -3.3 °C 30.39in /  1029hPa North 5.0mph /  8km/h 7.0mph /  11.3km/h 36% 0.00in /  0mm
15:50 52.2 °F /  11.2 °C 23.2 °F /  -4.9 °C 30.38in /  1028.7hPa NNW 9.0mph /  14.5km/h 9.0mph /  14.5km/h 32% 0.00in /  0mm
15:55 52.0 °F /  11.1 °C 21.5 °F /  -5.8 °C 30.38in /  1028.7hPa NNE 4.0mph /  6.4km/h 6.0mph /  9.7km/h 30% 0.00in /  0mm
16:00 52.0 °F /  11.1 °C 22.3 °F /  -5.4 °C 30.38in /  1028.7hPa NE 5.0mph /  8km/h 8.0mph /  12.9km/h 31% 0.00in /  0mm
16:05 52.0 °F /  11.1 °C 23.1 °F /  -4.9 °C 30.38in /  1028.7hPa NW 6.0mph /  9.7km/h 9.0mph /  14.5km/h 32% 0.00in /  0mm
16:10 52.2 °F /  11.2 °C 22.5 °F /  -5.3 °C 30.38in /  1028.7hPa NE 6.0mph /  9.7km/h 9.0mph /  14.5km/h 31% 0.00in /  0mm
16:15 52.1 °F /  11.2 °C 23.9 °F /  -4.5 °C 30.38in /  1028.7hPa NNE 3.0mph /  4.8km/h 5.0mph /  8km/h 33% 0.00in /  0mm
16:20 52.3 °F /  11.3 °C 23.3 °F /  -4.8 °C 30.39in /  1029hPa North 8.0mph /  12.9km/h 9.0mph /  14.5km/h 32% 0.00in /  0mm
16:25 52.4 °F /  11.3 °C 21.9 °F /  -5.6 °C 30.39in /  1029hPa North 8.0mph /  12.9km/h 11.0mph /  17.7km/h 30% 0.00in /  0mm
16:30 52.4 °F /  11.3 °C 22.7 °F /  -5.2 °C 30.39in /  1029hPa NNW 3.0mph /  4.8km/h 7.0mph /  11.3km/h 31% 0.00in /  0mm
16:35 52.3 °F /  11.3 °C 21.0 °F /  -6.1 °C 30.39in /  1029hPa SE 1.0mph /  1.6km/h 3.0mph /  4.8km/h 29% 0.00in /  0mm
16:40 52.5 °F /  11.4 °C 22.8 °F /  -5.1 °C 30.39in /  1029hPa North 6.0mph /  9.7km/h 10.0mph /  16.1km/h 31% 0.00in /  0mm
16:45 52.4 °F /  11.3 °C 22.7 °F /  -5.2 °C 30.39in /  1029hPa NE 2.0mph /  3.2km/h 5.0mph /  8km/h 31% 0.00in /  0mm
16:50 52.2 °F /  11.2 °C 20.9 °F /  -6.2 °C 30.38in /  1028.7hPa NE 2.0mph /  3.2km/h 7.0mph /  11.3km/h 29% 0.00in /  0mm
16:55 52.2 °F /  11.2 °C 22.5 °F /  -5.3 °C 30.38in /  1028.7hPa NE 5.0mph /  8km/h 6.0mph /  9.7km/h 31% 0.00in /  0mm
17:00 52.2 °F /  11.2 °C 23.2 °F /  -4.9 °C 30.38in /  1028.7hPa NNW 7.0mph /  11.3km/h 8.0mph /  12.9km/h 32% 0.00in /  0mm
17:05 52.5 °F /  11.4 °C 25.0 °F /  -3.9 °C 30.39in /  1029hPa NNW 3.0mph /  4.8km/h 7.0mph /  11.3km/h 34% 0.00in /  0mm
17:10 52.2 °F /  11.2 °C 22.5 °F /  -5.3 °C 30.39in /  1029hPa NW 2.0mph /  3.2km/h 7.0mph /  11.3km/h 31% 0.00in /  0mm
17:15 52.3 °F /  11.3 °C 22.6 °F /  -5.2 °C 30.39in /  1029hPa NE 3.0mph /  4.8km/h 4.0mph /  6.4km/h 31% 0.00in /  0mm
17:20 52.3 °F /  11.3 °C 21.8 °F /  -5.7 °C 30.39in /  1029hPa NNW 4.0mph /  6.4km/h 10.0mph /  16.1km/h 30% 0.00in /  0mm
17:25 52.2 °F /  11.2 °C 21.7 °F /  -5.7 °C 30.39in /  1029hPa NW 2.0mph /  3.2km/h 5.0mph /  8km/h 30% 0.00in /  0mm
17:30 52.4 °F /  11.3 °C 22.7 °F /  -5.2 °C 30.39in /  1029hPa NNE 1.0mph /  1.6km/h 3.0mph /  4.8km/h 31% 0.00in /  0mm
17:35 52.2 °F /  11.2 °C 22.5 °F /  -5.3 °C 30.39in /  1029hPa NNE 3.0mph /  4.8km/h 7.0mph /  11.3km/h 31% 0.00in /  0mm
17:41 52.0 °F /  11.1 °C 19.9 °F /  -6.7 °C 30.39in /  1029hPa NNE 3.0mph /  4.8km/h 5.0mph /  8km/h 28% 0.00in /  0mm
17:46 52.1 °F /  11.2 °C 23.2 °F /  -4.9 °C 30.39in /  1029hPa North 3.0mph /  4.8km/h 4.0mph /  6.4km/h 32% 0.00in /  0mm
17:51 52.1 °F /  11.2 °C 20.0 °F /  -6.7 °C 30.39in /  1029hPa NNW 1.0mph /  1.6km/h 4.0mph /  6.4km/h 28% 0.00in /  0mm
17:56 52.1 °F /  11.2 °C 23.2 °F /  -4.9 °C 30.39in /  1029hPa East 1.0mph /  1.6km/h 4.0mph /  6.4km/h 32% 0.00in /  0mm
18:01 51.6 °F /  10.9 °C 22.7 °F /  -5.2 °C 30.39in /  1029hPa East 3.0mph /  4.8km/h 5.0mph /  8km/h 32% 0.00in /  0mm
18:06 51.3 °F /  10.7 °C 23.2 °F /  -4.9 °C 30.39in /  1029hPa ENE 2.0mph /  3.2km/h 4.0mph /  6.4km/h 33% 0.00in /  0mm
18:11 51.2 °F /  10.7 °C 23.1 °F /  -4.9 °C 30.39in /  1029hPa ENE 2.0mph /  3.2km/h 3.0mph /  4.8km/h 33% 0.00in /  0mm
18:16 51.0 °F /  10.6 °C 25.0 °F /  -3.9 °C 30.39in /  1029hPa East 4.0mph /  6.4km/h 4.0mph /  6.4km/h 36% 0.00in /  0mm
18:21 50.6 °F /  10.3 °C 23.3 °F /  -4.8 °C 30.39in /  1029hPa ENE 1.0mph /  1.6km/h 5.0mph /  8km/h 34% 0.00in /  0mm
18:26 50.4 °F /  10.2 °C 24.5 °F /  -4.2 °C 30.39in /  1029hPa East 1.0mph /  1.6km/h 2.0mph /  3.2km/h 36% 0.00in /  0mm
18:31 50.1 °F /  10.1 °C 24.2 °F /  -4.3 °C 30.38in /  1028.7hPa ENE 2.0mph /  3.2km/h 3.0mph /  4.8km/h 36% 0.00in /  0mm
18:36 49.5 °F /  9.7 °C 24.3 °F /  -4.3 °C 30.39in /  1029hPa ENE 2.0mph /  3.2km/h 3.0mph /  4.8km/h 37% 0.00in /  0mm
18:41 49.1 °F /  9.5 °C 23.3 °F /  -4.8 °C 30.39in /  1029hPa ENE 1.0mph /  1.6km/h 3.0mph /  4.8km/h 36% 0.00in /  0mm
18:46 48.8 °F /  9.3 °C 23.0 °F /  -5 °C 30.39in /  1029hPa Calm   2.0mph /  3.2km/h 36% 0.00in /  0mm
18:51 48.5 °F /  9.2 °C 22.8 °F /  -5.1 °C 30.39in /  1029hPa Calm   1.0mph /  1.6km/h 36% 0.00in /  0mm
18:56 48.2 °F /  9 °C 22.5 °F /  -5.3 °C 30.39in /  1029hPa East 2.0mph /  3.2km/h 2.0mph /  3.2km/h 36% 0.00in /  0mm
19:01 47.9 °F /  8.8 °C 22.2 °F /  -5.4 °C 30.39in /  1029hPa East 1.0mph /  1.6km/h 2.0mph /  3.2km/h 36% 0.00in /  0mm
19:06 47.6 °F /  8.7 °C 22.0 °F /  -5.6 °C 30.39in /  1029hPa East 1.0mph /  1.6km/h 1.0mph /  1.6km/h 36% 0.00in /  0mm
19:12 47.3 °F /  8.5 °C 22.4 °F /  -5.3 °C 30.39in /  1029hPa East 1.0mph /  1.6km/h 2.0mph /  3.2km/h 37% 0.00in /  0mm
19:17 47.3 °F /  8.5 °C 21.7 °F /  -5.7 °C 30.39in /  1029hPa NE 1.0mph /  1.6km/h 3.0mph /  4.8km/h 36% 0.00in /  0mm
19:22 47.0 °F /  8.3 °C 22.7 °F /  -5.2 °C 30.39in /  1029hPa East 2.0mph /  3.2km/h 5.0mph /  8km/h 38% 0.00in /  0mm
19:27 46.6 °F /  8.1 °C 23.0 °F /  -5 °C 30.39in /  1029hPa East 3.0mph /  4.8km/h 5.0mph /  8km/h 39% 0.00in /  0mm
19:32 46.2 °F /  7.9 °C 23.2 °F /  -4.9 °C 30.39in /  1029hPa East 3.0mph /  4.8km/h 4.0mph /  6.4km/h 40% 0.00in /  0mm
19:37 45.8 °F /  7.7 °C 24.0 °F /  -4.4 °C 30.39in /  1029hPa ENE 2.0mph /  3.2km/h 4.0mph /  6.4km/h 42% 0.00in /  0mm
19:42 45.6 °F /  7.6 °C 23.3 °F /  -4.8 °C 30.39in /  1029hPa East 2.0mph /  3.2km/h 3.0mph /  4.8km/h 41% 0.00in /  0mm
19:47 45.4 °F /  7.4 °C 23.1 °F /  -4.9 °C 30.39in /  1029hPa ENE 2.0mph /  3.2km/h 4.0mph /  6.4km/h 41% 0.00in /  0mm
19:52 45.3 °F /  7.4 °C 23.0 °F /  -5 °C 30.39in /  1029hPa East 1.0mph /  1.6km/h 3.0mph /  4.8km/h 41% 0.00in /  0mm
19:57 45.1 °F /  7.3 °C 23.4 °F /  -4.8 °C 30.39in /  1029hPa East 3.0mph /  4.8km/h 4.0mph /  6.4km/h 42% 0.00in /  0mm
20:02 45.0 °F /  7.2 °C 22.7 °F /  -5.2 °C 30.39in /  1029hPa ENE 4.0mph /  6.4km/h 4.0mph /  6.4km/h 41% 0.00in /  0mm
20:07 44.9 °F /  7.2 °C 22.6 °F /  -5.2 °C 30.39in /  1029hPa East 2.0mph /  3.2km/h 4.0mph /  6.4km/h 41% 0.00in /  0mm
20:12 44.5 °F /  6.9 °C 23.4 °F /  -4.8 °C 30.39in /  1029hPa NE 2.0mph /  3.2km/h 4.0mph /  6.4km/h 43% 0.00in /  0mm
20:17 44.2 °F /  6.8 °C 23.1 °F /  -4.9 °C 30.39in /  1029hPa ENE 1.0mph /  1.6km/h 3.0mph /  4.8km/h 43% 0.00in /  0mm
20:22 44.2 °F /  6.8 °C 22.6 °F /  -5.2 °C 30.39in /  1029hPa East 3.0mph /  4.8km/h 3.0mph /  4.8km/h 42% 0.00in /  0mm
20:27 44.2 °F /  6.8 °C 22.6 °F /  -5.2 °C 30.39in /  1029hPa East 3.0mph /  4.8km/h 4.0mph /  6.4km/h 42% 0.00in /  0mm
20:32 44.0 °F /  6.7 °C 23.0 °F /  -5 °C 30.39in /  1029hPa East 1.0mph /  1.6km/h 3.0mph /  4.8km/h 43% 0.00in /  0mm
20:37 43.8 °F /  6.6 °C 22.2 °F /  -5.4 °C 30.39in /  1029hPa East 3.0mph /  4.8km/h 4.0mph /  6.4km/h 42% 0.00in /  0mm
20:42 43.6 °F /  6.4 °C 22.6 °F /  -5.2 °C 30.39in /  1029hPa East 2.0mph /  3.2km/h 5.0mph /  8km/h 43% 0.00in /  0mm
20:47 43.5 °F /  6.4 °C 22.5 °F /  -5.3 °C 30.39in /  1029hPa East 2.0mph /  3.2km/h 4.0mph /  6.4km/h 43% 0.00in /  0mm
20:52 43.2 °F /  6.2 °C 23.3 °F /  -4.8 °C 30.40in /  1029.3hPa ESE 2.0mph /  3.2km/h 2.0mph /  3.2km/h 45% 0.00in /  0mm
20:57 42.8 °F /  6 °C 23.5 °F /  -4.7 °C 30.40in /  1029.3hPa ENE 3.0mph /  4.8km/h 3.0mph /  4.8km/h 46% 0.00in /  0mm
21:02 42.4 °F /  5.8 °C 23.6 °F /  -4.7 °C 30.40in /  1029.3hPa ESE 2.0mph /  3.2km/h 3.0mph /  4.8km/h 47% 0.00in /  0mm
21:07 41.9 °F /  5.5 °C 23.7 °F /  -4.6 °C 30.40in /  1029.3hPa ESE 2.0mph /  3.2km/h 3.0mph /  4.8km/h 48% 0.00in /  0mm
21:12 41.6 °F /  5.3 °C 23.4 °F /  -4.8 °C 30.40in /  1029.3hPa ESE 1.0mph /  1.6km/h 2.0mph /  3.2km/h 48% 0.00in /  0mm
21:17 41.4 °F /  5.2 °C 23.7 °F /  -4.6 °C 30.40in /  1029.3hPa ESE 1.0mph /  1.6km/h 2.0mph /  3.2km/h 49% 0.00in /  0mm
21:22 41.1 °F /  5.1 °C 23.4 °F /  -4.8 °C 30.40in /  1029.3hPa Calm   2.0mph /  3.2km/h 49% 0.00in /  0mm
21:27 40.9 °F /  4.9 °C 23.2 °F /  -4.9 °C 30.41in /  1029.7hPa ESE 2.0mph /  3.2km/h 2.0mph /  3.2km/h 49% 0.00in /  0mm
21:33 41.0 °F /  5 °C 22.8 °F /  -5.1 °C 30.41in /  1029.7hPa ESE 2.0mph /  3.2km/h 3.0mph /  4.8km/h 48% 0.00in /  0mm
21:38 41.1 °F /  5.1 °C 22.4 °F /  -5.3 °C 30.41in /  1029.7hPa East 2.0mph /  3.2km/h 3.0mph /  4.8km/h 47% 0.00in /  0mm
21:43 41.1 °F /  5.1 °C 22.9 °F /  -5.1 °C 30.41in /  1029.7hPa ESE 2.0mph /  3.2km/h 2.0mph /  3.2km/h 48% 0.00in /  0mm
21:48 40.9 °F /  4.9 °C 22.7 °F /  -5.2 °C 30.41in /  1029.7hPa East 3.0mph /  4.8km/h 4.0mph /  6.4km/h 48% 0.00in /  0mm
21:53 40.8 °F /  4.9 °C 23.1 °F /  -4.9 °C 30.41in /  1029.7hPa ESE 1.0mph /  1.6km/h 2.0mph /  3.2km/h 49% 0.00in /  0mm
21:58 40.6 °F /  4.8 °C 23.0 °F /  -5 °C 30.42in /  1030hPa East 1.0mph /  1.6km/h 2.0mph /  3.2km/h 49% 0.00in /  0mm
22:03 40.4 °F /  4.7 °C 23.2 °F /  -4.9 °C 30.42in /  1030hPa East 1.0mph /  1.6km/h 2.0mph /  3.2km/h 50% 0.00in /  0mm
22:08 40.4 °F /  4.7 °C 22.8 °F /  -5.1 °C 30.42in /  1030hPa East 1.0mph /  1.6km/h 2.0mph /  3.2km/h 49% 0.00in /  0mm
22:13 40.5 °F /  4.7 °C 22.9 °F /  -5.1 °C 30.42in /  1030hPa ESE 2.0mph /  3.2km/h 2.0mph /  3.2km/h 49% 0.00in /  0mm
22:18 40.6 °F /  4.8 °C 23.0 °F /  -5 °C 30.42in /  1030hPa Calm   2.0mph /  3.2km/h 49% 0.00in /  0mm
22:23 40.6 °F /  4.8 °C 22.5 °F /  -5.3 °C 30.43in /  1030.4hPa ESE 2.0mph /  3.2km/h 2.0mph /  3.2km/h 48% 0.00in /  0mm
22:28 40.6 °F /  4.8 °C 22.5 °F /  -5.3 °C 30.42in /  1030hPa Calm   1.0mph /  1.6km/h 48% 0.00in /  0mm
22:33 40.6 °F /  4.8 °C 22.0 °F /  -5.6 °C 30.42in /  1030hPa ESE 3.0mph /  4.8km/h 3.0mph /  4.8km/h 47% 0.00in /  0mm
22:39 40.7 °F /  4.8 °C 22.5 °F /  -5.3 °C 30.42in /  1030hPa ESE 2.0mph /  3.2km/h 3.0mph /  4.8km/h 48% 0.00in /  0mm
22:44 40.7 °F /  4.8 °C 22.1 °F /  -5.5 °C 30.42in /  1030hPa ESE 3.0mph /  4.8km/h 4.0mph /  6.4km/h 47% 0.00in /  0mm
22:49 40.5 °F /  4.7 °C 22.9 °F /  -5.1 °C 30.42in /  1030hPa East 2.0mph /  3.2km/h 3.0mph /  4.8km/h 49% 0.00in /  0mm
22:54 40.4 °F /  4.7 °C 22.3 °F /  -5.4 °C 30.42in /  1030hPa ESE 3.0mph /  4.8km/h 3.0mph /  4.8km/h 48% 0.00in /  0mm
22:59 40.3 °F /  4.6 °C 22.2 °F /  -5.4 °C 30.42in /  1030hPa ESE 4.0mph /  6.4km/h 4.0mph /  6.4km/h 48% 0.00in /  0mm
23:04 40.3 °F /  4.6 °C 22.2 °F /  -5.4 °C 30.42in /  1030hPa ESE 2.0mph /  3.2km/h 3.0mph /  4.8km/h 48% 0.00in /  0mm
23:09 40.2 °F /  4.6 °C 22.6 °F /  -5.2 °C 30.42in /  1030hPa ESE 3.0mph /  4.8km/h 5.0mph /  8km/h 49% 0.00in /  0mm
23:14 40.0 °F /  4.4 °C 22.4 °F /  -5.3 °C 30.42in /  1030hPa ESE 3.0mph /  4.8km/h 4.0mph /  6.4km/h 49% 0.00in /  0mm
23:19 39.8 °F /  4.3 °C 22.7 °F /  -5.2 °C 30.42in /  1030hPa ESE 3.0mph /  4.8km/h 4.0mph /  6.4km/h 50% 0.00in /  0mm
23:24 39.7 °F /  4.3 °C 22.6 °F /  -5.2 °C 30.42in /  1030hPa ESE 2.0mph /  3.2km/h 4.0mph /  6.4km/h 50% 0.00in /  0mm
23:29 39.7 °F /  4.3 °C 22.6 °F /  -5.2 °C 30.43in /  1030.4hPa SE 3.0mph /  4.8km/h 4.0mph /  6.4km/h 50% 0.00in /  0mm
23:34 39.6 °F /  4.2 °C 23.0 °F /  -5 °C 30.42in /  1030hPa ESE 3.0mph /  4.8km/h 4.0mph /  6.4km/h 51% 0.00in /  0mm
23:39 39.4 °F /  4.1 °C 22.8 °F /  -5.1 °C 30.42in /  1030hPa East 3.0mph /  4.8km/h 4.0mph /  6.4km/h 51% 0.00in /  0mm
23:44 39.2 °F /  4 °C 23.5 °F /  -4.7 °C 30.42in /  1030hPa ESE 4.0mph /  6.4km/h 4.0mph /  6.4km/h 53% 0.00in /  0mm
23:49 39.0 °F /  3.9 °C 23.3 °F /  -4.8 °C 30.42in /  1030hPa East 3.0mph /  4.8km/h 4.0mph /  6.4km/h 53% 0.00in /  0mm
23:54 38.6 °F /  3.7 °C 23.8 °F /  -4.6 °C 30.42in /  1030hPa East 4.0mph /  6.4km/h 5.0mph /  8km/h 55% 0.00in /  0mm
23:59 38.5 °F /  3.6 °C 23.8 °F /  -4.6 °C 30.41in /  1029.7hPa East 3.0mph /  4.8km/h 5.0mph /  8km/h 55% 0.00in /  0mm
Compliments of Weather Underground